createdAt,value
2023-04-26T00:00:30.974Z,4.20
2023-04-26T00:03:00.104Z,3.90
2023-04-26T00:05:28.430Z,3.70
2023-04-26T00:07:55.018Z,4.10
2023-04-26T00:10:21.742Z,3.73
2023-04-26T00:12:48.197Z,3.93
2023-04-26T00:15:14.735Z,4.13
2023-04-26T00:17:41.344Z,4.90
2023-04-26T00:20:10.437Z,4.83
2023-04-26T00:22:37.227Z,4.77
2023-04-26T00:25:03.816Z,4.73
2023-04-26T00:27:30.318Z,3.93
2023-04-26T00:29:56.753Z,4.10
2023-04-26T00:32:23.331Z,4.17
2023-04-26T00:34:49.746Z,3.90
2023-04-26T00:37:16.670Z,3.63
2023-04-26T00:39:43.120Z,3.63
2023-04-26T00:42:09.617Z,4.03
2023-04-26T00:44:36.414Z,3.63
2023-04-26T00:47:03.223Z,4.03
2023-04-26T00:49:29.773Z,3.90
2023-04-26T00:51:56.480Z,3.97
2023-04-26T00:54:24.010Z,4.60
2023-04-26T00:56:53.062Z,3.93
2023-04-26T00:59:20.859Z,4.00
2023-04-26T01:01:49.054Z,4.50
2023-04-26T01:04:16.100Z,4.57
2023-04-26T01:06:42.953Z,4.00
2023-04-26T01:09:11.253Z,4.20
2023-04-26T01:11:38.369Z,3.97
2023-04-26T01:14:06.111Z,3.73
2023-04-26T01:16:33.732Z,3.90
2023-04-26T01:19:13.659Z,4.37
2023-04-26T01:21:40.803Z,4.77
2023-04-26T01:24:09.817Z,4.47
2023-04-26T01:26:37.320Z,4.10
2023-04-26T01:29:14.023Z,3.90
2023-04-26T01:31:40.494Z,4.40
2023-04-26T01:34:07.049Z,5.40
2023-04-26T01:36:33.618Z,4.53
2023-04-26T01:39:00.160Z,4.17
2023-04-26T01:41:26.823Z,4.23
2023-04-26T01:43:53.557Z,4.90
2023-04-26T01:46:19.996Z,5.20
2023-04-26T01:48:46.547Z,4.90
2023-04-26T01:51:13.339Z,4.57
2023-04-26T01:53:39.925Z,4.13
2023-04-26T01:56:06.745Z,5.07
2023-04-26T01:58:33.252Z,4.53
2023-04-26T02:01:09.804Z,4.70
2023-04-26T02:03:36.501Z,4.57
2023-04-26T02:06:03.809Z,5.07
2023-04-26T02:08:30.368Z,6.03
2023-04-26T02:10:56.990Z,5.33
2023-04-26T02:13:23.536Z,4.97
2023-04-26T02:15:50.250Z,4.77
2023-04-26T02:18:17.836Z,5.37
2023-04-26T02:20:45.820Z,4.90
2023-04-26T02:23:12.769Z,4.83
2023-04-26T02:25:39.664Z,5.50
2023-04-26T02:28:06.453Z,4.77
2023-04-26T02:30:32.994Z,5.03
2023-04-26T02:32:59.745Z,4.97
2023-04-26T02:35:26.752Z,4.70
2023-04-26T02:37:53.233Z,5.10
2023-04-26T02:40:19.946Z,5.30
2023-04-26T02:42:47.028Z,6.20
2023-04-26T02:45:13.727Z,6.33
2023-04-26T02:47:40.303Z,4.97
2023-04-26T02:50:07.964Z,5.70
2023-04-26T02:52:35.713Z,5.23
2023-04-26T02:55:04.273Z,4.80
2023-04-26T02:57:31.771Z,5.00
2023-04-26T02:59:58.814Z,5.37
2023-04-26T03:02:25.725Z,5.17
2023-04-26T03:04:52.660Z,6.27
2023-04-26T03:07:19.134Z,5.50
2023-04-26T03:09:45.741Z,5.33
2023-04-26T03:12:12.196Z,6.37
2023-04-26T03:14:38.680Z,5.17
2023-04-26T03:17:05.173Z,5.40
2023-04-26T03:19:31.693Z,5.30
2023-04-26T03:21:58.230Z,6.57
2023-04-26T03:24:24.678Z,6.07
2023-04-26T03:26:51.088Z,6.00
2023-04-26T03:29:17.568Z,5.23
2023-04-26T03:31:44.331Z,5.63
2023-04-26T03:34:11.533Z,5.77
2023-04-26T03:36:38.397Z,5.80
2023-04-26T03:39:06.157Z,6.23
2023-04-26T03:41:33.585Z,5.57
2023-04-26T03:44:00.092Z,5.80
2023-04-26T03:46:26.587Z,5.60
2023-04-26T03:48:53.450Z,5.87
2023-04-26T03:51:20.119Z,5.50
2023-04-26T03:53:48.692Z,5.47
2023-04-26T03:56:15.350Z,5.53
2023-04-26T03:58:42.238Z,5.97
2023-04-26T04:01:08.748Z,4.97
2023-04-26T04:03:36.233Z,4.83
2023-04-26T04:06:03.888Z,6.10
2023-04-26T04:08:30.620Z,5.60
2023-04-26T04:10:57.014Z,5.70
2023-04-26T04:13:23.449Z,5.27
2023-04-26T04:15:49.919Z,5.63
2023-04-26T04:18:16.982Z,5.63
2023-04-26T04:20:43.568Z,4.90
2023-04-26T04:23:10.852Z,5.03
2023-04-26T04:25:37.324Z,5.10
2023-04-26T04:28:03.954Z,5.90
2023-04-26T04:30:30.816Z,5.63
2023-04-26T04:32:59.326Z,5.87
2023-04-26T04:35:33.374Z,5.47
2023-04-26T04:38:00.193Z,5.73
2023-04-26T04:40:27.406Z,5.63
2023-04-26T04:42:54.838Z,5.80
2023-04-26T04:45:21.676Z,5.50
2023-04-26T04:47:48.445Z,5.00
2023-04-26T04:50:15.065Z,5.63
2023-04-26T04:52:42.540Z,5.33
2023-04-26T04:55:09.926Z,5.53
2023-04-26T04:57:36.431Z,5.37
2023-04-26T05:00:10.214Z,5.00
2023-04-26T05:02:37.585Z,5.13
2023-04-26T05:05:05.349Z,6.00
2023-04-26T05:07:32.577Z,5.73
2023-04-26T05:09:59.900Z,5.73
2023-04-26T05:12:26.790Z,4.97
2023-04-26T05:14:53.402Z,5.47
2023-04-26T05:17:20.299Z,5.30
2023-04-26T05:19:47.265Z,4.43
2023-04-26T05:22:18.804Z,5.63
2023-04-26T05:24:47.394Z,5.40
2023-04-26T05:27:14.633Z,5.60
2023-04-26T05:29:41.726Z,5.33
2023-04-26T05:32:08.428Z,5.07
2023-04-26T05:34:35.257Z,4.70
2023-04-26T05:37:01.731Z,5.27
2023-04-26T05:39:28.256Z,5.67
2023-04-26T05:41:54.734Z,4.77
2023-04-26T05:44:21.261Z,5.43
2023-04-26T05:46:47.671Z,5.33
2023-04-26T05:49:14.277Z,5.47
2023-04-26T05:51:41.234Z,5.23
2023-04-26T05:54:07.779Z,4.90
2023-04-26T05:56:34.245Z,5.43
2023-04-26T05:59:00.699Z,5.07
2023-04-26T06:01:27.855Z,5.03
2023-04-26T06:03:58.064Z,4.70
2023-04-26T06:06:28.413Z,5.07
2023-04-26T06:08:55.044Z,4.27
2023-04-26T06:11:21.675Z,4.70
2023-04-26T06:13:48.582Z,4.77
2023-04-26T06:16:15.430Z,4.70
2023-04-26T06:18:42.314Z,4.50
2023-04-26T06:21:08.821Z,5.10
2023-04-26T06:23:35.237Z,4.47
2023-04-26T06:26:01.940Z,4.03
2023-04-26T06:28:28.342Z,3.83
2023-04-26T06:30:54.846Z,4.53
2023-04-26T06:33:21.266Z,4.60
2023-04-26T06:35:47.851Z,4.20
2023-04-26T06:38:14.322Z,4.03
2023-04-26T06:40:41.376Z,4.17
2023-04-26T06:43:07.799Z,4.80
2023-04-26T06:45:34.363Z,3.87
2023-04-26T06:48:01.672Z,3.67
2023-04-26T06:50:28.152Z,4.73
2023-04-26T06:52:54.671Z,4.70
2023-04-26T06:55:21.305Z,4.10
2023-04-26T06:57:47.813Z,3.83
2023-04-26T07:00:14.712Z,3.57
2023-04-26T07:02:41.521Z,4.17
2023-04-26T07:05:08.966Z,3.77
2023-04-26T07:07:36.035Z,3.50
2023-04-26T07:10:03.175Z,4.00
2023-04-26T07:12:29.809Z,3.73
2023-04-26T07:14:56.237Z,4.27
2023-04-26T07:17:22.835Z,4.23
2023-04-26T07:19:49.382Z,3.50
2023-04-26T07:22:15.781Z,4.07
2023-04-26T07:24:42.220Z,3.33
2023-04-26T07:27:08.685Z,3.10
2023-04-26T07:29:35.156Z,3.20
2023-04-26T07:32:01.570Z,2.53
2023-04-26T07:34:28.032Z,2.80
2023-04-26T07:36:54.492Z,2.90
2023-04-26T07:39:21.001Z,2.83
2023-04-26T07:41:47.581Z,2.80
2023-04-26T07:44:14.030Z,2.23
2023-04-26T07:46:40.642Z,2.43
2023-04-26T07:49:07.257Z,2.80
2023-04-26T07:51:35.864Z,2.50
2023-04-26T07:54:02.312Z,2.20
2023-04-26T07:56:28.904Z,2.00
2023-04-26T07:58:56.243Z,2.40
2023-04-26T08:01:22.796Z,2.10
2023-04-26T08:03:49.627Z,1.63
2023-04-26T08:06:16.784Z,1.83
2023-04-26T08:08:45.657Z,2.57
2023-04-26T08:11:12.251Z,2.47
2023-04-26T08:13:39.069Z,1.53
2023-04-26T08:16:06.473Z,2.10
2023-04-26T08:18:33.607Z,1.97
2023-04-26T08:21:00.118Z,2.00
2023-04-26T08:23:26.646Z,2.30
2023-04-26T08:25:53.075Z,1.97
2023-04-26T08:28:19.682Z,1.63
2023-04-26T08:30:46.212Z,2.13
2023-04-26T08:33:12.958Z,1.80
2023-04-26T08:35:39.496Z,2.27
2023-04-26T08:38:05.918Z,2.30
2023-04-26T08:40:32.991Z,2.70
2023-04-26T08:42:59.409Z,3.70
2023-04-26T08:45:26.067Z,2.93
2023-04-26T08:48:09.500Z,2.40
2023-04-26T08:50:36.891Z,2.00
2023-04-26T08:53:03.895Z,2.40
2023-04-26T08:55:31.043Z,2.60
2023-04-26T08:57:58.106Z,2.03
2023-04-26T09:00:24.900Z,2.20
2023-04-26T09:02:53.368Z,2.10
2023-04-26T09:05:24.650Z,1.90
2023-04-26T09:07:56.373Z,2.03
2023-04-26T09:10:23.317Z,2.47
2023-04-26T09:12:53.714Z,2.13
2023-04-26T09:15:26.521Z,1.90
2023-04-26T09:17:53.841Z,2.40
2023-04-26T09:20:22.008Z,2.10
2023-04-26T09:22:51.170Z,1.90
2023-04-26T09:25:19.928Z,1.93
2023-04-26T09:27:46.592Z,1.83
2023-04-26T09:30:18.566Z,2.20
2023-04-26T09:32:49.643Z,2.20
2023-04-26T09:35:28.533Z,2.13
2023-04-26T09:38:02.323Z,1.60
2023-04-26T09:40:37.828Z,2.20
2023-04-26T09:43:06.746Z,1.97
2023-04-26T09:45:43.171Z,2.50
2023-04-26T09:48:26.852Z,2.37
2023-04-26T09:50:55.528Z,1.87
2023-04-26T09:53:31.614Z,1.90
2023-04-26T09:56:13.512Z,2.07
2023-04-26T09:58:58.813Z,1.60
2023-04-26T10:01:26.807Z,1.60
2023-04-26T10:03:53.873Z,1.70
2023-04-26T10:06:20.571Z,2.00
2023-04-26T10:08:47.072Z,1.57
2023-04-26T10:11:13.921Z,1.97
2023-04-26T10:13:42.895Z,1.47
2023-04-26T10:16:10.060Z,1.30
2023-04-26T10:18:37.318Z,1.80
2023-04-26T10:21:16.166Z,2.13
2023-04-26T10:23:43.133Z,2.00
2023-04-26T10:26:48.910Z,1.97
2023-04-26T10:29:15.819Z,2.00
2023-04-26T10:32:01.567Z,1.90
2023-04-26T10:34:31.253Z,1.80
2023-04-26T10:37:07.322Z,2.00
2023-04-26T10:39:33.989Z,2.40
2023-04-26T10:42:24.079Z,1.80
2023-04-26T10:44:52.757Z,2.10
2023-04-26T10:47:30.361Z,2.20
2023-04-26T10:50:12.332Z,1.80
2023-04-26T10:53:04.504Z,2.00
2023-04-26T10:55:44.584Z,1.93
2023-04-26T10:58:30.242Z,2.47
2023-04-26T11:01:18.812Z,2.40
2023-04-26T11:03:58.000Z,2.30
2023-04-26T11:06:26.889Z,1.70
2023-04-26T11:08:54.544Z,1.87
2023-04-26T11:11:26.396Z,2.00
2023-04-26T11:13:52.874Z,1.97
2023-04-26T11:16:19.670Z,1.93
2023-04-26T11:18:47.288Z,1.70
2023-04-26T11:21:17.798Z,2.23
2023-04-26T11:23:54.785Z,1.60
2023-04-26T11:26:21.906Z,2.03
2023-04-26T11:28:49.216Z,1.93
2023-04-26T11:31:18.514Z,2.60
2023-04-26T11:33:44.924Z,2.50
2023-04-26T11:36:12.232Z,2.30
2023-04-26T11:38:38.683Z,1.90
2023-04-26T11:41:05.202Z,2.10
2023-04-26T11:43:38.617Z,1.60
2023-04-26T11:46:06.858Z,1.90
2023-04-26T11:48:35.473Z,1.90
2023-04-26T11:51:04.361Z,2.10
2023-04-26T11:53:42.026Z,1.97
2023-04-26T11:56:21.917Z,1.80
2023-04-26T11:58:50.555Z,2.43
2023-04-26T12:01:25.477Z,2.40
2023-04-26T12:03:54.252Z,2.00
2023-04-26T12:06:46.195Z,2.17
2023-04-26T12:09:13.635Z,2.20
2023-04-26T12:11:40.232Z,2.30
2023-04-26T12:14:07.905Z,2.40
2023-04-26T12:16:37.638Z,2.37
2023-04-26T12:19:07.759Z,2.20
2023-04-26T12:21:42.554Z,2.20
2023-04-26T12:24:23.864Z,2.17
2023-04-26T12:26:50.451Z,1.97
2023-04-26T12:29:17.296Z,2.30
2023-04-26T12:31:43.875Z,2.03
2023-04-26T12:34:10.640Z,1.83
2023-04-26T12:36:37.192Z,2.00
2023-04-26T12:39:05.438Z,2.07
2023-04-26T12:41:32.016Z,2.23
2023-04-26T12:43:58.566Z,2.17
2023-04-26T12:46:26.115Z,2.37
2023-04-26T12:48:52.984Z,2.00
2023-04-26T12:51:19.427Z,1.80
2023-04-26T12:53:45.941Z,2.20
2023-04-26T12:56:12.442Z,1.90
2023-04-26T12:58:38.882Z,1.40
2023-04-26T13:01:05.396Z,1.90
2023-04-26T13:03:31.970Z,1.77
2023-04-26T13:05:58.774Z,2.53
2023-04-26T13:08:25.410Z,2.03
2023-04-26T13:10:51.841Z,1.70
2023-04-26T13:13:19.304Z,1.90
2023-04-26T13:15:46.973Z,1.80
2023-04-26T13:18:15.781Z,1.77
2023-04-26T13:20:42.607Z,1.60
2023-04-26T13:23:09.610Z,1.53
2023-04-26T13:25:36.163Z,1.80
2023-04-26T13:28:03.033Z,2.30
2023-04-26T13:30:29.978Z,2.00
2023-04-26T13:32:58.213Z,2.00
2023-04-26T13:35:26.522Z,1.93
2023-04-26T13:37:53.460Z,2.13
2023-04-26T13:40:22.310Z,1.47
2023-04-26T13:42:48.791Z,2.03
2023-04-26T13:45:16.609Z,2.07
2023-04-26T13:47:44.065Z,1.77
2023-04-26T13:50:10.703Z,1.80
2023-04-26T13:52:37.206Z,1.50
2023-04-26T13:55:04.497Z,1.67
2023-04-26T13:57:31.692Z,1.60
2023-04-26T13:59:58.176Z,2.00
2023-04-26T14:02:24.949Z,1.77
2023-04-26T14:04:51.928Z,1.73
2023-04-26T14:07:18.626Z,1.77
2023-04-26T14:09:45.051Z,1.97
2023-04-26T14:12:11.493Z,1.70
2023-04-26T14:14:37.932Z,1.50
2023-04-26T14:17:04.384Z,2.20
2023-04-26T14:19:31.300Z,1.87
2023-04-26T14:21:57.764Z,1.90
2023-04-26T14:24:24.545Z,2.07
2023-04-26T14:26:50.980Z,1.63
2023-04-26T14:29:17.481Z,2.30
2023-04-26T14:31:44.096Z,2.40
2023-04-26T14:34:10.626Z,2.20
2023-04-26T14:36:37.192Z,1.90
2023-04-26T14:39:03.939Z,1.83
2023-04-26T14:41:30.464Z,2.23
2023-04-26T14:43:57.155Z,1.57
2023-04-26T14:46:23.700Z,2.07
2023-04-26T14:48:50.933Z,1.90
2023-04-26T14:51:17.861Z,2.30
2023-04-26T14:53:44.341Z,2.27
2023-04-26T14:56:10.837Z,2.23
2023-04-26T14:58:37.397Z,2.10
2023-04-26T15:01:04.275Z,2.17
2023-04-26T15:03:30.975Z,2.33
2023-04-26T15:05:57.674Z,1.83
2023-04-26T15:08:24.101Z,2.00
2023-04-26T15:10:51.438Z,2.03
2023-04-26T15:13:19.303Z,2.23
2023-04-26T15:15:46.038Z,2.10
2023-04-26T15:18:12.537Z,1.83
2023-04-26T15:20:40.636Z,2.10
2023-04-26T15:23:07.867Z,2.50
2023-04-26T15:25:36.064Z,2.10
2023-04-26T15:28:03.459Z,2.10
2023-04-26T15:30:30.579Z,2.00
2023-04-26T15:32:57.477Z,2.03
2023-04-26T15:35:25.243Z,2.57
2023-04-26T15:37:53.694Z,2.40
2023-04-26T15:40:24.641Z,2.40
2023-04-26T15:42:52.059Z,2.67
2023-04-26T15:45:19.450Z,2.23
2023-04-26T15:47:47.272Z,2.77
2023-04-26T15:50:14.431Z,2.23
2023-04-26T15:52:40.965Z,2.50
2023-04-26T15:55:07.698Z,3.23
2023-04-26T15:57:34.680Z,2.30
2023-04-26T16:00:01.631Z,2.40
2023-04-26T16:02:28.209Z,2.60
2023-04-26T16:04:54.977Z,3.30
2023-04-26T16:07:21.571Z,2.30
2023-04-26T16:09:48.078Z,2.37
2023-04-26T16:12:14.606Z,2.73
2023-04-26T16:14:41.126Z,2.37
2023-04-26T16:17:07.650Z,2.93
2023-04-26T16:19:34.095Z,2.63
2023-04-26T16:22:00.543Z,2.50
2023-04-26T16:24:27.117Z,2.50
2023-04-26T16:26:53.555Z,2.43
2023-04-26T16:29:20.040Z,2.53
2023-04-26T16:31:46.698Z,2.57
2023-04-26T16:34:13.270Z,2.43
2023-04-26T16:36:39.775Z,2.57
2023-04-26T16:39:06.611Z,2.47
2023-04-26T16:41:33.296Z,2.33
2023-04-26T16:43:59.731Z,2.30
2023-04-26T16:46:26.999Z,2.27
2023-04-26T16:48:54.321Z,2.23
2023-04-26T16:51:20.890Z,1.80
2023-04-26T16:53:47.345Z,2.27
2023-04-26T16:56:13.795Z,2.80
2023-04-26T16:58:40.247Z,2.00
2023-04-26T17:01:06.843Z,2.47
2023-04-26T17:03:33.622Z,2.20
2023-04-26T17:06:00.288Z,3.53
2023-04-26T17:08:27.245Z,2.40
2023-04-26T17:10:53.786Z,2.33
2023-04-26T17:13:20.537Z,2.80
2023-04-26T17:15:47.683Z,2.07
2023-04-26T17:18:14.182Z,2.43
2023-04-26T17:20:41.926Z,2.30
2023-04-26T17:23:08.959Z,2.60
2023-04-26T17:25:35.956Z,2.37
2023-04-26T17:28:02.481Z,2.17
2023-04-26T17:30:29.221Z,2.27
2023-04-26T17:32:55.966Z,2.03
2023-04-26T17:35:22.587Z,2.40
2023-04-26T17:37:50.466Z,2.10
2023-04-26T17:40:18.541Z,2.20
2023-04-26T17:42:46.375Z,2.20
2023-04-26T17:45:14.077Z,2.77
2023-04-26T17:47:41.603Z,2.47
2023-04-26T17:50:09.193Z,2.20
2023-04-26T17:52:35.733Z,1.87
2023-04-26T17:55:02.437Z,1.90
2023-04-26T17:57:28.975Z,2.03
2023-04-26T17:59:55.452Z,1.73
2023-04-26T18:02:22.003Z,1.70
2023-04-26T18:04:49.235Z,2.07
2023-04-26T18:07:16.078Z,2.23
2023-04-26T18:09:42.639Z,2.20
2023-04-26T18:12:09.194Z,2.57
2023-04-26T18:14:35.784Z,2.27
2023-04-26T18:17:04.500Z,2.23
2023-04-26T18:19:31.153Z,2.47
2023-04-26T18:21:57.619Z,1.90
2023-04-26T18:24:24.155Z,2.37
2023-04-26T18:26:50.667Z,2.97
2023-04-26T18:29:17.200Z,2.70
2023-04-26T18:31:43.866Z,2.20
2023-04-26T18:34:11.454Z,2.13
2023-04-26T18:36:37.922Z,2.40
2023-04-26T18:39:04.758Z,2.40
2023-04-26T18:41:31.465Z,2.37
2023-04-26T18:43:58.043Z,2.57
2023-04-26T18:46:24.487Z,2.17
2023-04-26T18:48:51.290Z,2.73
2023-04-26T18:51:17.856Z,2.90
2023-04-26T18:53:44.762Z,2.30
2023-04-26T18:56:11.302Z,2.17
2023-04-26T18:58:38.840Z,2.47
2023-04-26T19:01:05.572Z,2.40
2023-04-26T19:03:32.248Z,2.67
2023-04-26T19:05:58.814Z,2.40
2023-04-26T19:08:25.728Z,2.90
2023-04-26T19:10:52.173Z,3.03
2023-04-26T19:13:19.186Z,3.07
2023-04-26T19:15:46.069Z,2.70
2023-04-26T19:18:12.547Z,2.63
2023-04-26T19:20:39.185Z,3.10
2023-04-26T19:23:06.193Z,3.00
2023-04-26T19:25:36.009Z,2.80
2023-04-26T19:28:02.466Z,2.67
2023-04-26T19:30:28.928Z,3.77
2023-04-26T19:32:55.492Z,3.57
2023-04-26T19:35:21.939Z,4.20
2023-04-26T19:37:48.468Z,4.07
2023-04-26T19:40:14.983Z,3.30
2023-04-26T19:42:41.456Z,3.70
2023-04-26T19:45:08.180Z,3.17
2023-04-26T19:47:34.666Z,3.40
2023-04-26T19:50:01.251Z,3.13
2023-04-26T19:52:27.712Z,3.53
2023-04-26T19:54:54.548Z,3.77
2023-04-26T19:57:22.184Z,4.13
2023-04-26T19:59:48.673Z,4.27
2023-04-26T20:02:15.426Z,3.10
2023-04-26T20:04:42.775Z,3.43
2023-04-26T20:07:09.251Z,3.77
2023-04-26T20:09:36.164Z,5.27
2023-04-26T20:12:03.253Z,2.77
2023-04-26T20:14:30.419Z,3.13
2023-04-26T20:16:57.370Z,3.57
2023-04-26T20:19:23.862Z,3.20
2023-04-26T20:21:50.800Z,2.77
2023-04-26T20:24:17.253Z,3.87
2023-04-26T20:26:44.030Z,3.17
2023-04-26T20:29:10.509Z,3.13
2023-04-26T20:31:36.970Z,3.03
2023-04-26T20:34:03.437Z,3.13
2023-04-26T20:36:29.886Z,3.30
2023-04-26T20:38:56.618Z,3.80
2023-04-26T20:41:23.379Z,3.17
2023-04-26T20:43:49.905Z,3.27
2023-04-26T20:46:16.412Z,3.37
2023-04-26T20:48:42.955Z,3.10
2023-04-26T20:51:09.419Z,2.57
2023-04-26T20:53:36.381Z,3.40
2023-04-26T20:56:03.633Z,3.60
2023-04-26T20:58:30.464Z,3.57
2023-04-26T21:00:57.676Z,4.00
2023-04-26T21:03:24.260Z,4.10
2023-04-26T21:05:51.046Z,3.33
2023-04-26T21:08:17.560Z,3.80
2023-04-26T21:10:44.041Z,3.73
2023-04-26T21:13:10.480Z,3.87
2023-04-26T21:15:37.077Z,3.90
2023-04-26T21:18:03.732Z,4.00
2023-04-26T21:20:30.335Z,4.30
2023-04-26T21:22:56.774Z,3.43
2023-04-26T21:25:23.237Z,4.00
2023-04-26T21:27:51.486Z,4.40
2023-04-26T21:30:18.043Z,4.40
2023-04-26T21:32:44.536Z,4.40
2023-04-26T21:35:11.131Z,4.43
2023-04-26T21:37:37.687Z,4.33
2023-04-26T21:40:05.042Z,4.27
2023-04-26T21:42:31.635Z,4.10
2023-04-26T21:44:58.047Z,4.73
2023-04-26T21:47:24.560Z,3.93
2023-04-26T21:49:51.530Z,3.80
2023-04-26T21:52:18.880Z,3.90
2023-04-26T21:54:45.455Z,4.03
2023-04-26T21:57:11.999Z,4.37
2023-04-26T21:59:42.148Z,4.33
2023-04-26T22:02:08.802Z,4.57
2023-04-26T22:04:35.234Z,5.37
2023-04-26T22:07:02.427Z,5.37
2023-04-26T22:09:28.898Z,4.37
2023-04-26T22:11:55.398Z,4.93
2023-04-26T22:14:21.865Z,4.87
2023-04-26T22:16:48.408Z,5.13
2023-04-26T22:19:14.932Z,7.17
2023-04-26T22:21:41.499Z,6.50
2023-04-26T22:24:08.315Z,7.13
2023-04-26T22:26:34.746Z,6.80
2023-04-26T22:29:01.143Z,7.43
2023-04-26T22:31:27.714Z,6.27
2023-04-26T22:33:54.152Z,6.30
2023-04-26T22:36:20.833Z,6.87
2023-04-26T22:38:47.232Z,6.77
2023-04-26T22:41:13.734Z,6.87
2023-04-26T22:43:41.537Z,7.27
2023-04-26T22:46:08.056Z,7.77
2023-04-26T22:48:34.555Z,7.47
2023-04-26T22:51:00.986Z,7.93
2023-04-26T22:53:27.443Z,8.03
2023-04-26T22:55:53.877Z,7.50
2023-04-26T22:58:20.652Z,6.83
2023-04-26T23:00:47.138Z,7.00
2023-04-26T23:03:13.718Z,7.03
2023-04-26T23:05:40.246Z,7.10
2023-04-26T23:08:06.828Z,7.83
2023-04-26T23:10:33.446Z,7.93
2023-04-26T23:13:00.365Z,7.27
2023-04-26T23:15:27.042Z,7.30
2023-04-26T23:17:53.988Z,6.83
2023-04-26T23:20:20.580Z,6.30
2023-04-26T23:22:47.028Z,6.20
2023-04-26T23:25:13.519Z,6.63
2023-04-26T23:27:39.983Z,5.87
2023-04-26T23:30:07.393Z,5.73
2023-04-26T23:32:33.871Z,6.07
2023-04-26T23:35:00.544Z,6.70
2023-04-26T23:37:27.045Z,6.07
2023-04-26T23:39:53.489Z,6.17
2023-04-26T23:42:19.939Z,6.00
2023-04-26T23:44:46.329Z,5.33
2023-04-26T23:47:12.792Z,6.47
2023-04-26T23:49:39.224Z,6.23
2023-04-26T23:52:06.060Z,5.53
2023-04-26T23:54:33.071Z,5.97
2023-04-26T23:56:59.510Z,6.43
2023-04-26T23:59:26.072Z,6.17
